sensor_id;sensor_type;location;lat;lon;timestamp;P1;P2;P0
83597;PMS5003;73565;45.774;15.892;2023-12-29T00:00:53;9;9;7
83597;PMS5003;73565;45.774;15.892;2023-12-29T00:02:53;10;9;8
83597;PMS5003;73565;45.774;15.892;2023-12-29T00:04:53;10;10;8
83597;PMS5003;73565;45.774;15.892;2023-12-29T00:06:53;10;9;6
83597;PMS5003;73565;45.774;15.892;2023-12-29T00:08:53;11;10;7
83597;PMS5003;73565;45.774;15.892;2023-12-29T00:10:53;10;10;7
83597;PMS5003;73565;45.774;15.892;2023-12-29T00:12:53;11;11;8
83597;PMS5003;73565;45.774;15.892;2023-12-29T00:14:53;11;11;9
83597;PMS5003;73565;45.774;15.892;2023-12-29T00:16:53;7;6;5
83597;PMS5003;73565;45.774;15.892;2023-12-29T00:18:53;12;11;8
83597;PMS5003;73565;45.774;15.892;2023-12-29T00:20:53;10;10;8
83597;PMS5003;73565;45.774;15.892;2023-12-29T00:22:53;10;10;8
83597;PMS5003;73565;45.774;15.892;2023-12-29T00:24:53;11;10;9
83597;PMS5003;73565;45.774;15.892;2023-12-29T00:26:53;10;8;8
83597;PMS5003;73565;45.774;15.892;2023-12-29T00:28:53;5;5;5
83597;PMS5003;73565;45.774;15.892;2023-12-29T00:30:53;15;13;9
83597;PMS5003;73565;45.774;15.892;2023-12-29T00:32:53;11;11;9
83597;PMS5003;73565;45.774;15.892;2023-12-29T00:34:53;10;10;8
83597;PMS5003;73565;45.774;15.892;2023-12-29T00:36:53;12;10;8
83597;PMS5003;73565;45.774;15.892;2023-12-29T00:38:53;12;12;7
83597;PMS5003;73565;45.774;15.892;2023-12-29T00:40:53;11;10;7
83597;PMS5003;73565;45.774;15.892;2023-12-29T00:42:53;11;10;7
83597;PMS5003;73565;45.774;15.892;2023-12-29T00:44:53;5;5;4
83597;PMS5003;73565;45.774;15.892;2023-12-29T00:46:53;12;9;7
83597;PMS5003;73565;45.774;15.892;2023-12-29T00:48:53;10;10;8
83597;PMS5003;73565;45.774;15.892;2023-12-29T00:50:53;8;8;6
83597;PMS5003;73565;45.774;15.892;2023-12-29T00:52:53;8;7;5
83597;PMS5003;73565;45.774;15.892;2023-12-29T00:54:53;5;4;4
83597;PMS5003;73565;45.774;15.892;2023-12-29T00:56:53;12;10;8
83597;PMS5003;73565;45.774;15.892;2023-12-29T00:58:53;7;7;6
83597;PMS5003;73565;45.774;15.892;2023-12-29T01:00:53;9;8;6
83597;PMS5003;73565;45.774;15.892;2023-12-29T01:02:53;9;8;7
83597;PMS5003;73565;45.774;15.892;2023-12-29T01:04:53;7;7;5
83597;PMS5003;73565;45.774;15.892;2023-12-29T01:06:53;6;6;5
83597;PMS5003;73565;45.774;15.892;2023-12-29T01:08:53;8;8;6
83597;PMS5003;73565;45.774;15.892;2023-12-29T01:10:53;7;7;6
83597;PMS5003;73565;45.774;15.892;2023-12-29T01:12:53;8;8;7
83597;PMS5003;73565;45.774;15.892;2023-12-29T01:14:53;6;6;5
83597;PMS5003;73565;45.774;15.892;2023-12-29T01:16:53;6;6;5
83597;PMS5003;73565;45.774;15.892;2023-12-29T01:18:53;6;6;5
83597;PMS5003;73565;45.774;15.892;2023-12-29T01:20:53;6;6;5
83597;PMS5003;73565;45.774;15.892;2023-12-29T01:22:53;4;4;3
83597;PMS5003;73565;45.774;15.892;2023-12-29T01:24:53;6;6;5
83597;PMS5003;73565;45.774;15.892;2023-12-29T01:26:53;5;5;4
83597;PMS5003;73565;45.774;15.892;2023-12-29T01:28:53;6;6;5
83597;PMS5003;73565;45.774;15.892;2023-12-29T01:30:53;7;7;5
83597;PMS5003;73565;45.774;15.892;2023-12-29T01:32:53;6;5;5
83597;PMS5003;73565;45.774;15.892;2023-12-29T01:34:53;6;6;6
83597;PMS5003;73565;45.774;15.892;2023-12-29T01:36:53;7;7;6
83597;PMS5003;73565;45.774;15.892;2023-12-29T01:38:53;7;6;5
83597;PMS5003;73565;45.774;15.892;2023-12-29T01:40:53;4;4;4
83597;PMS5003;73565;45.774;15.892;2023-12-29T01:42:53;6;6;5
83597;PMS5003;73565;45.774;15.892;2023-12-29T01:44:53;7;6;5
83597;PMS5003;73565;45.774;15.892;2023-12-29T01:46:53;3;3;3
83597;PMS5003;73565;45.774;15.892;2023-12-29T01:48:53;7;7;6
83597;PMS5003;73565;45.774;15.892;2023-12-29T01:50:53;3;3;3
83597;PMS5003;73565;45.774;15.892;2023-12-29T01:53:11;12;11;7
83597;PMS5003;73565;45.774;15.892;2023-12-29T01:55:08;7;7;6
83597;PMS5003;73565;45.774;15.892;2023-12-29T01:57:08;6;6;5
83597;PMS5003;73565;45.774;15.892;2023-12-29T01:59:08;6;6;6
83597;PMS5003;73565;45.774;15.892;2023-12-29T01:59:54;9;8;7
83597;PMS5003;73565;45.774;15.892;2023-12-29T02:01:46;9;9;7
83597;PMS5003;73565;45.774;15.892;2023-12-29T02:02:23;9;8;6
83597;PMS5003;73565;45.774;15.892;2023-12-29T02:03:28;10;9;8
83597;PMS5003;73565;45.774;15.892;2023-12-29T02:05:28;8;7;5
83597;PMS5003;73565;45.774;15.892;2023-12-29T02:07:28;9;9;6
83597;PMS5003;73565;45.774;15.892;2023-12-29T02:09:28;7;7;6
83597;PMS5003;73565;45.774;15.892;2023-12-29T02:11:28;6;5;4
83597;PMS5003;73565;45.774;15.892;2023-12-29T02:13:28;6;6;5
83597;PMS5003;73565;45.774;15.892;2023-12-29T02:15:28;8;8;6
83597;PMS5003;73565;45.774;15.892;2023-12-29T02:17:30;9;9;7
83597;PMS5003;73565;45.774;15.892;2023-12-29T02:19:30;8;7;6
83597;PMS5003;73565;45.774;15.892;2023-12-29T02:21:28;7;7;5
83597;PMS5003;73565;45.774;15.892;2023-12-29T02:23:29;7;4;4
83597;PMS5003;73565;45.774;15.892;2023-12-29T02:25:28;6;6;5
83597;PMS5003;73565;45.774;15.892;2023-12-29T02:27:31;7;6;5
83597;PMS5003;73565;45.774;15.892;2023-12-29T02:29:28;5;5;4
83597;PMS5003;73565;45.774;15.892;2023-12-29T02:31:29;7;7;6
83597;PMS5003;73565;45.774;15.892;2023-12-29T02:33:28;9;9;8
83597;PMS5003;73565;45.774;15.892;2023-12-29T02:35:28;9;8;6
83597;PMS5003;73565;45.774;15.892;2023-12-29T02:37:28;13;12;8
83597;PMS5003;73565;45.774;15.892;2023-12-29T02:39:28;9;9;6
83597;PMS5003;73565;45.774;15.892;2023-12-29T02:41:28;9;7;7
83597;PMS5003;73565;45.774;15.892;2023-12-29T02:43:28;8;6;5
83597;PMS5003;73565;45.774;15.892;2023-12-29T02:45:28;6;6;5
83597;PMS5003;73565;45.774;15.892;2023-12-29T02:47:28;9;9;7
83597;PMS5003;73565;45.774;15.892;2023-12-29T02:49:28;5;5;4
83597;PMS5003;73565;45.774;15.892;2023-12-29T02:51:28;7;6;5
83597;PMS5003;73565;45.774;15.892;2023-12-29T02:53:28;8;8;7
83597;PMS5003;73565;45.774;15.892;2023-12-29T02:55:28;11;9;8
83597;PMS5003;73565;45.774;15.892;2023-12-29T02:57:28;7;6;5
83597;PMS5003;73565;45.774;15.892;2023-12-29T02:59:28;2;1;1
83597;PMS5003;73565;45.774;15.892;2023-12-29T03:01:28;8;8;5
83597;PMS5003;73565;45.774;15.892;2023-12-29T03:03:28;8;8;6
83597;PMS5003;73565;45.774;15.892;2023-12-29T03:05:28;8;7;5
83597;PMS5003;73565;45.774;15.892;2023-12-29T03:07:28;7;7;6
83597;PMS5003;73565;45.774;15.892;2023-12-29T03:09:28;6;6;5
83597;PMS5003;73565;45.774;15.892;2023-12-29T03:11:28;8;8;6
83597;PMS5003;73565;45.774;15.892;2023-12-29T03:13:28;8;8;5
83597;PMS5003;73565;45.774;15.892;2023-12-29T03:15:28;11;11;9
83597;PMS5003;73565;45.774;15.892;2023-12-29T03:17:28;6;6;4
83597;PMS5003;73565;45.774;15.892;2023-12-29T03:19:28;8;8;7
83597;PMS5003;73565;45.774;15.892;2023-12-29T03:21:28;6;5;5
83597;PMS5003;73565;45.774;15.892;2023-12-29T03:24:02;9;9;8
83597;PMS5003;73565;45.774;15.892;2023-12-29T03:25:14;5;5;3
83597;PMS5003;73565;45.774;15.892;2023-12-29T03:29:55;5;5;4
83597;PMS5003;73565;45.774;15.892;2023-12-29T03:31:55;7;7;6
83597;PMS5003;73565;45.774;15.892;2023-12-29T03:35:37;4;4;4
83597;PMS5003;73565;45.774;15.892;2023-12-29T03:37:37;8;8;7
83597;PMS5003;73565;45.774;15.892;2023-12-29T03:39:37;7;7;6
83597;PMS5003;73565;45.774;15.892;2023-12-29T03:41:37;6;6;5
83597;PMS5003;73565;45.774;15.892;2023-12-29T03:43:37;8;7;6
83597;PMS5003;73565;45.774;15.892;2023-12-29T03:45:37;5;5;5
83597;PMS5003;73565;45.774;15.892;2023-12-29T03:47:37;5;5;4
83597;PMS5003;73565;45.774;15.892;2023-12-29T03:49:37;5;5;5
83597;PMS5003;73565;45.774;15.892;2023-12-29T03:51:37;6;6;5
83597;PMS5003;73565;45.774;15.892;2023-12-29T03:53:37;6;5;5
83597;PMS5003;73565;45.774;15.892;2023-12-29T03:56:33;5;5;4
83597;PMS5003;73565;45.774;15.892;2023-12-29T03:58:03;6;6;5
83597;PMS5003;73565;45.774;15.892;2023-12-29T04:00:03;6;6;6
83597;PMS5003;73565;45.774;15.892;2023-12-29T04:02:03;6;6;5
83597;PMS5003;73565;45.774;15.892;2023-12-29T04:04:03;7;7;5
83597;PMS5003;73565;45.774;15.892;2023-12-29T04:06:03;5;4;3
83597;PMS5003;73565;45.774;15.892;2023-12-29T04:08:03;6;6;6
83597;PMS5003;73565;45.774;15.892;2023-12-29T04:10:03;6;6;5
83597;PMS5003;73565;45.774;15.892;2023-12-29T04:12:03;6;6;4
83597;PMS5003;73565;45.774;15.892;2023-12-29T04:14:03;3;3;2
83597;PMS5003;73565;45.774;15.892;2023-12-29T04:16:03;4;4;4
83597;PMS5003;73565;45.774;15.892;2023-12-29T04:18:03;4;4;4
83597;PMS5003;73565;45.774;15.892;2023-12-29T04:20:03;5;5;4
83597;PMS5003;73565;45.774;15.892;2023-12-29T04:22:03;5;5;4
83597;PMS5003;73565;45.774;15.892;2023-12-29T04:24:03;6;5;4
83597;PMS5003;73565;45.774;15.892;2023-12-29T04:26:03;6;6;5
83597;PMS5003;73565;45.774;15.892;2023-12-29T04:28:03;7;6;5
83597;PMS5003;73565;45.774;15.892;2023-12-29T04:30:03;6;6;5
83597;PMS5003;73565;45.774;15.892;2023-12-29T04:32:03;7;7;6
83597;PMS5003;73565;45.774;15.892;2023-12-29T04:34:03;4;4;4
83597;PMS5003;73565;45.774;15.892;2023-12-29T04:36:03;6;6;4
83597;PMS5003;73565;45.774;15.892;2023-12-29T04:38:03;7;7;5
83597;PMS5003;73565;45.774;15.892;2023-12-29T04:40:03;6;6;5
83597;PMS5003;73565;45.774;15.892;2023-12-29T04:42:03;4;4;3
83597;PMS5003;73565;45.774;15.892;2023-12-29T04:44:03;4;4;3
83597;PMS5003;73565;45.774;15.892;2023-12-29T04:46:03;6;6;6
83597;PMS5003;73565;45.774;15.892;2023-12-29T04:48:03;3;3;3
83597;PMS5003;73565;45.774;15.892;2023-12-29T04:50:03;6;5;5
83597;PMS5003;73565;45.774;15.892;2023-12-29T04:52:03;6;6;4
83597;PMS5003;73565;45.774;15.892;2023-12-29T04:54:03;6;5;4
83597;PMS5003;73565;45.774;15.892;2023-12-29T04:56:03;4;4;3
83597;PMS5003;73565;45.774;15.892;2023-12-29T04:58:03;4;4;3
83597;PMS5003;73565;45.774;15.892;2023-12-29T05:00:03;5;5;4
83597;PMS5003;73565;45.774;15.892;2023-12-29T05:02:03;7;6;5
83597;PMS5003;73565;45.774;15.892;2023-12-29T05:04:03;4;3;3
83597;PMS5003;73565;45.774;15.892;2023-12-29T05:06:03;6;6;5
83597;PMS5003;73565;45.774;15.892;2023-12-29T05:08:03;7;7;5
83597;PMS5003;73565;45.774;15.892;2023-12-29T05:10:03;4;4;3
83597;PMS5003;73565;45.774;15.892;2023-12-29T05:12:03;5;5;4
83597;PMS5003;73565;45.774;15.892;2023-12-29T05:14:03;5;5;3
83597;PMS5003;73565;45.774;15.892;2023-12-29T05:16:03;5;5;5
83597;PMS5003;73565;45.774;15.892;2023-12-29T05:18:03;8;8;7
83597;PMS5003;73565;45.774;15.892;2023-12-29T05:20:03;5;5;4
83597;PMS5003;73565;45.774;15.892;2023-12-29T05:22:03;6;6;5
83597;PMS5003;73565;45.774;15.892;2023-12-29T05:24:03;4;4;4
83597;PMS5003;73565;45.774;15.892;2023-12-29T05:26:03;8;8;6
83597;PMS5003;73565;45.774;15.892;2023-12-29T05:28:50;8;7;5
83597;PMS5003;73565;45.774;15.892;2023-12-29T05:30:23;9;8;7
83597;PMS5003;73565;45.774;15.892;2023-12-29T05:32:23;8;7;6
83597;PMS5003;73565;45.774;15.892;2023-12-29T05:34:23;10;9;8
83597;PMS5003;73565;45.774;15.892;2023-12-29T05:36:23;8;8;7
83597;PMS5003;73565;45.774;15.892;2023-12-29T05:38:23;12;11;9
83597;PMS5003;73565;45.774;15.892;2023-12-29T05:42:00;15;13;9
83597;PMS5003;73565;45.774;15.892;2023-12-29T05:44:00;14;14;9
83597;PMS5003;73565;45.774;15.892;2023-12-29T05:44:50;15;15;10
83597;PMS5003;73565;45.774;15.892;2023-12-29T05:45:56;16;15;11
83597;PMS5003;73565;45.774;15.892;2023-12-29T05:47:56;16;15;12
83597;PMS5003;73565;45.774;15.892;2023-12-29T05:49:56;13;13;10
83597;PMS5003;73565;45.774;15.892;2023-12-29T05:51:56;14;13;10
83597;PMS5003;73565;45.774;15.892;2023-12-29T05:53:56;13;13;10
83597;PMS5003;73565;45.774;15.892;2023-12-29T05:55:56;13;13;11
83597;PMS5003;73565;45.774;15.892;2023-12-29T05:57:56;12;12;11
83597;PMS5003;73565;45.774;15.892;2023-12-29T05:59:56;11;11;9
83597;PMS5003;73565;45.774;15.892;2023-12-29T06:01:56;12;11;7
83597;PMS5003;73565;45.774;15.892;2023-12-29T06:03:56;20;17;13
83597;PMS5003;73565;45.774;15.892;2023-12-29T06:05:56;20;19;15
83597;PMS5003;73565;45.774;15.892;2023-12-29T06:07:56;15;15;11
83597;PMS5003;73565;45.774;15.892;2023-12-29T06:09:56;9;9;7
83597;PMS5003;73565;45.774;15.892;2023-12-29T06:11:56;16;16;11
83597;PMS5003;73565;45.774;15.892;2023-12-29T06:13:56;16;16;9
83597;PMS5003;73565;45.774;15.892;2023-12-29T06:15:56;11;11;9
83597;PMS5003;73565;45.774;15.892;2023-12-29T06:17:56;13;13;10
83597;PMS5003;73565;45.774;15.892;2023-12-29T06:19:56;13;13;9
83597;PMS5003;73565;45.774;15.892;2023-12-29T06:21:56;7;6;4
83597;PMS5003;73565;45.774;15.892;2023-12-29T06:23:56;11;11;7
83597;PMS5003;73565;45.774;15.892;2023-12-29T06:25:56;10;10;7
83597;PMS5003;73565;45.774;15.892;2023-12-29T06:27:56;12;12;9
83597;PMS5003;73565;45.774;15.892;2023-12-29T06:29:56;13;13;9
83597;PMS5003;73565;45.774;15.892;2023-12-29T06:31:56;11;10;9
83597;PMS5003;73565;45.774;15.892;2023-12-29T06:33:56;9;9;8
83597;PMS5003;73565;45.774;15.892;2023-12-29T06:35:56;7;6;5
83597;PMS5003;73565;45.774;15.892;2023-12-29T06:37:56;8;7;5
83597;PMS5003;73565;45.774;15.892;2023-12-29T06:39:56;6;5;4
83597;PMS5003;73565;45.774;15.892;2023-12-29T06:41:56;5;5;4
83597;PMS5003;73565;45.774;15.892;2023-12-29T06:43:56;5;5;5
83597;PMS5003;73565;45.774;15.892;2023-12-29T06:45:56;8;7;5
83597;PMS5003;73565;45.774;15.892;2023-12-29T06:47:56;9;8;6
83597;PMS5003;73565;45.774;15.892;2023-12-29T06:49:56;9;8;6
83597;PMS5003;73565;45.774;15.892;2023-12-29T06:51:56;6;6;5
83597;PMS5003;73565;45.774;15.892;2023-12-29T06:53:56;5;5;3
83597;PMS5003;73565;45.774;15.892;2023-12-29T06:56:16;15;12;10
83597;PMS5003;73565;45.774;15.892;2023-12-29T06:57:23;6;6;6
83597;PMS5003;73565;45.774;15.892;2023-12-29T06:59:23;4;4;3
83597;PMS5003;73565;45.774;15.892;2023-12-29T07:01:23;7;6;5
83597;PMS5003;73565;45.774;15.892;2023-12-29T07:03:23;7;7;6
83597;PMS5003;73565;45.774;15.892;2023-12-29T07:05:23;5;5;4
83597;PMS5003;73565;45.774;15.892;2023-12-29T07:07:23;6;5;4
83597;PMS5003;73565;45.774;15.892;2023-12-29T07:09:23;10;10;9
83597;PMS5003;73565;45.774;15.892;2023-12-29T07:11:23;7;6;5
83597;PMS5003;73565;45.774;15.892;2023-12-29T07:13:23;9;9;6
83597;PMS5003;73565;45.774;15.892;2023-12-29T07:15:23;9;7;6
83597;PMS5003;73565;45.774;15.892;2023-12-29T07:17:23;8;7;7
83597;PMS5003;73565;45.774;15.892;2023-12-29T07:19:23;6;6;4
83597;PMS5003;73565;45.774;15.892;2023-12-29T07:21:23;6;6;4
83597;PMS5003;73565;45.774;15.892;2023-12-29T07:23:23;11;10;7
83597;PMS5003;73565;45.774;15.892;2023-12-29T07:25:23;10;10;8
83597;PMS5003;73565;45.774;15.892;2023-12-29T07:27:23;6;6;6
83597;PMS5003;73565;45.774;15.892;2023-12-29T07:29:23;8;6;5
83597;PMS5003;73565;45.774;15.892;2023-12-29T07:31:23;9;8;6
83597;PMS5003;73565;45.774;15.892;2023-12-29T07:33:23;6;6;4
83597;PMS5003;73565;45.774;15.892;2023-12-29T07:35:23;9;9;8
83597;PMS5003;73565;45.774;15.892;2023-12-29T07:37:23;10;9;8
83597;PMS5003;73565;45.774;15.892;2023-12-29T07:39:23;9;9;8
83597;PMS5003;73565;45.774;15.892;2023-12-29T07:41:23;10;10;9
83597;PMS5003;73565;45.774;15.892;2023-12-29T07:43:23;10;10;9
83597;PMS5003;73565;45.774;15.892;2023-12-29T07:45:23;12;12;9
83597;PMS5003;73565;45.774;15.892;2023-12-29T07:47:23;11;10;8
83597;PMS5003;73565;45.774;15.892;2023-12-29T07:49:23;15;14;10
83597;PMS5003;73565;45.774;15.892;2023-12-29T07:51:23;15;15;10
83597;PMS5003;73565;45.774;15.892;2023-12-29T07:53:23;14;14;10
83597;PMS5003;73565;45.774;15.892;2023-12-29T07:56:22;16;16;12
83597;PMS5003;73565;45.774;15.892;2023-12-29T07:57:45;11;11;9
83597;PMS5003;73565;45.774;15.892;2023-12-29T07:59:42;18;18;12
83597;PMS5003;73565;45.774;15.892;2023-12-29T08:01:42;12;12;9
83597;PMS5003;73565;45.774;15.892;2023-12-29T08:03:43;18;17;12
83597;PMS5003;73565;45.774;15.892;2023-12-29T08:05:42;11;11;9
83597;PMS5003;73565;45.774;15.892;2023-12-29T08:07:42;17;16;12
83597;PMS5003;73565;45.774;15.892;2023-12-29T08:09:42;19;18;13
83597;PMS5003;73565;45.774;15.892;2023-12-29T08:11:42;15;15;11
83597;PMS5003;73565;45.774;15.892;2023-12-29T08:13:43;19;18;12
83597;PMS5003;73565;45.774;15.892;2023-12-29T08:15:42;19;18;13
83597;PMS5003;73565;45.774;15.892;2023-12-29T08:17:42;18;17;12
83597;PMS5003;73565;45.774;15.892;2023-12-29T08:19:42;19;19;15
83597;PMS5003;73565;45.774;15.892;2023-12-29T08:20:22;17;17;12
83597;PMS5003;73565;45.774;15.892;2023-12-29T08:22:07;19;17;13
83597;PMS5003;73565;45.774;15.892;2023-12-29T08:24:07;14;13;12
83597;PMS5003;73565;45.774;15.892;2023-12-29T08:26:07;17;17;13
83597;PMS5003;73565;45.774;15.892;2023-12-29T08:28:07;18;16;12
83597;PMS5003;73565;45.774;15.892;2023-12-29T08:30:08;15;15;10
83597;PMS5003;73565;45.774;15.892;2023-12-29T08:32:07;21;20;14
83597;PMS5003;73565;45.774;15.892;2023-12-29T08:34:12;16;15;12
83597;PMS5003;73565;45.774;15.892;2023-12-29T08:36:08;19;18;13
83597;PMS5003;73565;45.774;15.892;2023-12-29T08:38:07;18;17;14
83597;PMS5003;73565;45.774;15.892;2023-12-29T08:40:08;20;18;12
83597;PMS5003;73565;45.774;15.892;2023-12-29T08:42:08;12;12;9
83597;PMS5003;73565;45.774;15.892;2023-12-29T08:44:07;16;15;11
83597;PMS5003;73565;45.774;15.892;2023-12-29T08:46:07;18;16;12
83597;PMS5003;73565;45.774;15.892;2023-12-29T08:48:07;11;11;5
83597;PMS5003;73565;45.774;15.892;2023-12-29T08:50:08;10;8;6
83597;PMS5003;73565;45.774;15.892;2023-12-29T08:52:08;11;11;9
83597;PMS5003;73565;45.774;15.892;2023-12-29T08:54:08;11;11;9
83597;PMS5003;73565;45.774;15.892;2023-12-29T08:56:07;9;8;7
83597;PMS5003;73565;45.774;15.892;2023-12-29T08:57:24;9;9;8
83597;PMS5003;73565;45.774;15.892;2023-12-29T08:58:35;6;6;5
83597;PMS5003;73565;45.774;15.892;2023-12-29T09:00:33;8;8;7
83597;PMS5003;73565;45.774;15.892;2023-12-29T09:02:33;9;9;7
83597;PMS5003;73565;45.774;15.892;2023-12-29T09:04:33;8;7;6
83597;PMS5003;73565;45.774;15.892;2023-12-29T09:06:33;9;8;7
83597;PMS5003;73565;45.774;15.892;2023-12-29T09:08:33;10;10;8
83597;PMS5003;73565;45.774;15.892;2023-12-29T09:10:33;7;7;6
83597;PMS5003;73565;45.774;15.892;2023-12-29T09:12:33;9;9;7
83597;PMS5003;73565;45.774;15.892;2023-12-29T09:14:34;7;7;6
83597;PMS5003;73565;45.774;15.892;2023-12-29T09:16:34;8;7;7
83597;PMS5003;73565;45.774;15.892;2023-12-29T09:18:33;9;9;7
83597;PMS5003;73565;45.774;15.892;2023-12-29T09:20:33;9;8;7
83597;PMS5003;73565;45.774;15.892;2023-12-29T09:22:34;7;7;5
83597;PMS5003;73565;45.774;15.892;2023-12-29T09:24:33;7;7;5
83597;PMS5003;73565;45.774;15.892;2023-12-29T09:26:33;3;3;2
83597;PMS5003;73565;45.774;15.892;2023-12-29T09:28:33;6;6;5
83597;PMS5003;73565;45.774;15.892;2023-12-29T09:30:33;10;9;7
83597;PMS5003;73565;45.774;15.892;2023-12-29T09:32:33;5;5;5
83597;PMS5003;73565;45.774;15.892;2023-12-29T09:34:33;6;6;4
83597;PMS5003;73565;45.774;15.892;2023-12-29T09:36:33;3;3;1
83597;PMS5003;73565;45.774;15.892;2023-12-29T09:38:33;7;6;5
83597;PMS5003;73565;45.774;15.892;2023-12-29T09:40:33;6;6;5
83597;PMS5003;73565;45.774;15.892;2023-12-29T09:42:36;6;6;4
83597;PMS5003;73565;45.774;15.892;2023-12-29T09:44:34;7;7;6
83597;PMS5003;73565;45.774;15.892;2023-12-29T09:46:33;4;4;4
83597;PMS5003;73565;45.774;15.892;2023-12-29T09:48:34;5;5;5
83597;PMS5003;73565;45.774;15.892;2023-12-29T09:50:33;9;8;6
83597;PMS5003;73565;45.774;15.892;2023-12-29T09:52:33;4;4;4
83597;PMS5003;73565;45.774;15.892;2023-12-29T09:56:36;8;7;5
83597;PMS5003;73565;45.774;15.892;2023-12-29T09:58:33;7;6;4
83597;PMS5003;73565;45.774;15.892;2023-12-29T10:00:33;7;6;5
83597;PMS5003;73565;45.774;15.892;2023-12-29T10:02:33;9;9;5
83597;PMS5003;73565;45.774;15.892;2023-12-29T10:04:31;5;4;4
83597;PMS5003;73565;45.774;15.892;2023-12-29T10:06:34;4;4;3
83597;PMS5003;73565;45.774;15.892;2023-12-29T10:08:30;6;6;5
83597;PMS5003;73565;45.774;15.892;2023-12-29T10:10:30;4;4;4
83597;PMS5003;73565;45.774;15.892;2023-12-29T10:12:29;6;5;4
83597;PMS5003;73565;45.774;15.892;2023-12-29T10:14:30;5;5;3
83597;PMS5003;73565;45.774;15.892;2023-12-29T10:16:31;7;7;5
83597;PMS5003;73565;45.774;15.892;2023-12-29T10:18:30;5;5;4
83597;PMS5003;73565;45.774;15.892;2023-12-29T10:20:33;7;7;5
83597;PMS5003;73565;45.774;15.892;2023-12-29T10:22:31;5;5;5
83597;PMS5003;73565;45.774;15.892;2023-12-29T10:24:32;8;8;5
83597;PMS5003;73565;45.774;15.892;2023-12-29T10:26:31;6;6;5
83597;PMS5003;73565;45.774;15.892;2023-12-29T10:28:30;7;7;6
83597;PMS5003;73565;45.774;15.892;2023-12-29T10:30:29;7;6;6
83597;PMS5003;73565;45.774;15.892;2023-12-29T10:32:29;6;6;5
83597;PMS5003;73565;45.774;15.892;2023-12-29T10:34:32;7;7;4
83597;PMS5003;73565;45.774;15.892;2023-12-29T10:36:29;6;6;4
83597;PMS5003;73565;45.774;15.892;2023-12-29T10:38:29;7;7;6
83597;PMS5003;73565;45.774;15.892;2023-12-29T10:39:25;9;9;7
83597;PMS5003;73565;45.774;15.892;2023-12-29T10:40:50;7;7;7
83597;PMS5003;73565;45.774;15.892;2023-12-29T10:42:56;7;7;5
83597;PMS5003;73565;45.774;15.892;2023-12-29T10:44:49;4;3;3
83597;PMS5003;73565;45.774;15.892;2023-12-29T10:46:49;7;7;6
83597;PMS5003;73565;45.774;15.892;2023-12-29T10:48:50;5;5;4
83597;PMS5003;73565;45.774;15.892;2023-12-29T10:50:50;8;7;6
83597;PMS5003;73565;45.774;15.892;2023-12-29T10:52:50;8;7;4
83597;PMS5003;73565;45.774;15.892;2023-12-29T10:54:49;7;6;5
83597;PMS5003;73565;45.774;15.892;2023-12-29T10:56:49;8;8;6
83597;PMS5003;73565;45.774;15.892;2023-12-29T10:58:50;10;8;7
83597;PMS5003;73565;45.774;15.892;2023-12-29T11:00:49;6;5;3
83597;PMS5003;73565;45.774;15.892;2023-12-29T11:02:58;8;8;6
83597;PMS5003;73565;45.774;15.892;2023-12-29T11:04:49;5;5;4
83597;PMS5003;73565;45.774;15.892;2023-12-29T11:05:53;6;6;4
83597;PMS5003;73565;45.774;15.892;2023-12-29T11:06:52;6;6;4
83597;PMS5003;73565;45.774;15.892;2023-12-29T11:08:54;7;7;5
83597;PMS5003;73565;45.774;15.892;2023-12-29T11:10:54;8;8;7
83597;PMS5003;73565;45.774;15.892;2023-12-29T11:12:52;6;6;5
83597;PMS5003;73565;45.774;15.892;2023-12-29T11:14:52;7;7;5
83597;PMS5003;73565;45.774;15.892;2023-12-29T11:18:05;7;7;6
83597;PMS5003;73565;45.774;15.892;2023-12-29T11:20:04;4;4;3
83597;PMS5003;73565;45.774;15.892;2023-12-29T11:22:16;7;7;6
83597;PMS5003;73565;45.774;15.892;2023-12-29T11:24:11;7;7;7
83597;PMS5003;73565;45.774;15.892;2023-12-29T11:26:08;6;6;5
83597;PMS5003;73565;45.774;15.892;2023-12-29T11:28:08;8;8;7
83597;PMS5003;73565;45.774;15.892;2023-12-29T11:30:08;8;8;7
83597;PMS5003;73565;45.774;15.892;2023-12-29T11:32:09;7;7;6
83597;PMS5003;73565;45.774;15.892;2023-12-29T11:34:12;4;4;3
83597;PMS5003;73565;45.774;15.892;2023-12-29T11:36:08;5;5;5
83597;PMS5003;73565;45.774;15.892;2023-12-29T11:38:13;6;5;4
83597;PMS5003;73565;45.774;15.892;2023-12-29T11:40:09;8;8;6
83597;PMS5003;73565;45.774;15.892;2023-12-29T11:42:11;6;6;6
83597;PMS5003;73565;45.774;15.892;2023-12-29T11:44:08;7;7;6
83597;PMS5003;73565;45.774;15.892;2023-12-29T11:46:08;6;6;5
83597;PMS5003;73565;45.774;15.892;2023-12-29T11:48:08;7;7;6
83597;PMS5003;73565;45.774;15.892;2023-12-29T11:50:08;10;8;6
83597;PMS5003;73565;45.774;15.892;2023-12-29T11:52:08;8;8;7
83597;PMS5003;73565;45.774;15.892;2023-12-29T11:54:08;9;9;6
83597;PMS5003;73565;45.774;15.892;2023-12-29T11:56:08;8;8;6
83597;PMS5003;73565;45.774;15.892;2023-12-29T11:58:23;7;6;5
83597;PMS5003;73565;45.774;15.892;2023-12-29T12:00:08;7;7;6
83597;PMS5003;73565;45.774;15.892;2023-12-29T12:02:08;8;7;5
83597;PMS5003;73565;45.774;15.892;2023-12-29T12:04:08;6;6;5
83597;PMS5003;73565;45.774;15.892;2023-12-29T12:06:08;9;8;7
83597;PMS5003;73565;45.774;15.892;2023-12-29T12:08:08;7;7;6
83597;PMS5003;73565;45.774;15.892;2023-12-29T12:12:08;7;7;6
83597;PMS5003;73565;45.774;15.892;2023-12-29T12:14:08;7;7;6
83597;PMS5003;73565;45.774;15.892;2023-12-29T12:16:08;11;11;8
83597;PMS5003;73565;45.774;15.892;2023-12-29T12:18:10;11;10;8
83597;PMS5003;73565;45.774;15.892;2023-12-29T12:20:09;7;7;7
83597;PMS5003;73565;45.774;15.892;2023-12-29T12:22:08;7;7;6
83597;PMS5003;73565;45.774;15.892;2023-12-29T12:24:08;10;10;8
83597;PMS5003;73565;45.774;15.892;2023-12-29T12:26:10;11;11;7
83597;PMS5003;73565;45.774;15.892;2023-12-29T12:28:12;10;10;8
83597;PMS5003;73565;45.774;15.892;2023-12-29T12:30:09;13;11;8
83597;PMS5003;73565;45.774;15.892;2023-12-29T12:32:08;10;10;8
83597;PMS5003;73565;45.774;15.892;2023-12-29T12:34:08;6;6;5
83597;PMS5003;73565;45.774;15.892;2023-12-29T12:36:10;7;7;5
83597;PMS5003;73565;45.774;15.892;2023-12-29T12:38:12;7;7;6
83597;PMS5003;73565;45.774;15.892;2023-12-29T12:40:09;11;11;8
83597;PMS5003;73565;45.774;15.892;2023-12-29T12:42:08;10;10;7
83597;PMS5003;73565;45.774;15.892;2023-12-29T12:44:08;11;10;8
83597;PMS5003;73565;45.774;15.892;2023-12-29T12:46:10;12;12;10
83597;PMS5003;73565;45.774;15.892;2023-12-29T12:48:09;12;12;9
83597;PMS5003;73565;45.774;15.892;2023-12-29T12:50:08;7;7;7
83597;PMS5003;73565;45.774;15.892;2023-12-29T12:52:07;9;9;8
83597;PMS5003;73565;45.774;15.892;2023-12-29T12:54:08;8;8;6
83597;PMS5003;73565;45.774;15.892;2023-12-29T12:56:08;8;8;6
83597;PMS5003;73565;45.774;15.892;2023-12-29T12:58:12;8;7;6
83597;PMS5003;73565;45.774;15.892;2023-12-29T13:00:08;6;5;5
83597;PMS5003;73565;45.774;15.892;2023-12-29T13:02:08;9;9;7
83597;PMS5003;73565;45.774;15.892;2023-12-29T13:04:10;9;8;6
83597;PMS5003;73565;45.774;15.892;2023-12-29T13:06:08;6;6;5